createdAt,value
2018-08-28T00:01:11.740Z,46.50
2018-08-28T00:03:40.056Z,46.40
2018-08-28T00:06:08.432Z,46.60
2018-08-28T00:08:36.746Z,46.70
2018-08-28T00:11:05.602Z,46.60
2018-08-28T00:13:33.963Z,46.50
2018-08-28T00:16:02.536Z,46.40
2018-08-28T00:18:30.848Z,46.50
2018-08-28T00:20:59.216Z,46.60
2018-08-28T00:23:27.581Z,46.60
2018-08-28T00:25:55.973Z,46.50
2018-08-28T00:28:24.253Z,46.80
2018-08-28T00:30:52.592Z,46.50
2018-08-28T00:33:21.055Z,46.70
2018-08-28T00:35:49.361Z,46.50
2018-08-28T00:38:17.720Z,46.70
2018-08-28T00:40:46.038Z,46.70
2018-08-28T00:43:14.373Z,46.60
2018-08-28T00:45:42.689Z,46.80
2018-08-28T00:48:11.031Z,46.90
2018-08-28T00:50:39.393Z,46.70
2018-08-28T00:53:07.837Z,46.50
2018-08-28T00:55:36.129Z,47.40
2018-08-28T00:58:04.520Z,46.80
2018-08-28T01:00:32.835Z,46.80
2018-08-28T01:03:01.262Z,46.80
2018-08-28T01:05:29.570Z,46.60
2018-08-28T01:07:57.917Z,46.70
2018-08-28T01:10:26.180Z,46.60
2018-08-28T01:12:54.468Z,46.40
2018-08-28T01:15:22.740Z,46.60
2018-08-28T01:17:51.038Z,46.60
2018-08-28T01:20:19.265Z,46.70
2018-08-28T01:22:47.489Z,46.50
2018-08-28T01:25:15.802Z,46.70
2018-08-28T01:27:44.105Z,46.70
2018-08-28T01:30:12.387Z,46.70
2018-08-28T01:32:41.710Z,46.90
2018-08-28T01:35:10.006Z,46.70
2018-08-28T01:37:38.300Z,46.80
2018-08-28T01:40:06.614Z,46.90
2018-08-28T01:42:34.913Z,46.90
2018-08-28T01:45:03.261Z,46.90
2018-08-28T01:47:31.597Z,46.90
2018-08-28T01:49:59.934Z,47.10
2018-08-28T01:52:28.198Z,47.10
2018-08-28T01:54:56.571Z,47.10
2018-08-28T01:57:24.825Z,47.00
2018-08-28T01:59:53.133Z,47.10
2018-08-28T02:02:21.393Z,47.20
2018-08-28T02:04:49.707Z,47.00
2018-08-28T02:07:17.993Z,47.20
2018-08-28T02:09:46.322Z,47.20
2018-08-28T02:12:14.582Z,47.30
2018-08-28T02:14:42.912Z,47.40
2018-08-28T02:17:11.187Z,47.30
2018-08-28T02:19:39.462Z,47.40
2018-08-28T02:22:07.668Z,47.40
2018-08-28T02:24:35.979Z,47.40
2018-08-28T02:27:04.217Z,47.40
2018-08-28T02:29:32.500Z,47.40
2018-08-28T02:32:00.796Z,47.40
2018-08-28T02:34:29.273Z,47.40
2018-08-28T02:36:57.546Z,47.40
2018-08-28T02:39:25.934Z,47.40
2018-08-28T02:41:54.133Z,47.40
2018-08-28T02:44:22.486Z,47.30
2018-08-28T02:46:50.802Z,47.30
2018-08-28T02:49:19.138Z,47.50
2018-08-28T02:51:47.432Z,47.60
2018-08-28T02:54:15.809Z,47.70
2018-08-28T02:56:44.116Z,47.70
2018-08-28T02:59:12.486Z,47.70
2018-08-28T03:01:40.812Z,47.70
2018-08-28T03:04:09.121Z,47.80
2018-08-28T03:06:37.456Z,47.80
2018-08-28T03:09:06.485Z,47.70
2018-08-28T03:11:34.900Z,47.80
2018-08-28T03:14:03.150Z,47.80
2018-08-28T03:16:31.533Z,47.80
2018-08-28T03:18:59.792Z,47.70
2018-08-28T03:21:28.222Z,47.90
2018-08-28T03:23:56.597Z,47.90
2018-08-28T03:26:24.932Z,47.90
2018-08-28T03:28:53.241Z,47.90
2018-08-28T03:31:21.615Z,47.90
2018-08-28T03:33:49.914Z,47.90
2018-08-28T03:36:18.272Z,47.90
2018-08-28T03:38:46.545Z,48.10
2018-08-28T03:41:14.883Z,48.00
2018-08-28T03:43:43.279Z,48.10
2018-08-28T03:46:11.581Z,48.00
2018-08-28T03:48:39.896Z,48.00
2018-08-28T03:51:08.626Z,48.10
2018-08-28T03:53:36.891Z,48.10
2018-08-28T03:56:05.593Z,48.80
2018-08-28T03:58:33.902Z,48.10
2018-08-28T04:01:02.470Z,48.00
2018-08-28T04:03:30.722Z,48.10
2018-08-28T04:05:59.034Z,48.10
2018-08-28T04:08:27.359Z,48.10
2018-08-28T04:10:55.665Z,48.20
2018-08-28T04:13:23.975Z,48.20
2018-08-28T04:15:52.225Z,48.20
2018-08-28T04:18:20.521Z,48.10
2018-08-28T04:20:48.866Z,48.20
2018-08-28T04:23:17.224Z,48.10
2018-08-28T04:25:45.625Z,48.10
2018-08-28T04:28:13.974Z,48.30
2018-08-28T04:30:42.371Z,48.20
2018-08-28T04:33:10.650Z,48.20
2018-08-28T04:35:39.057Z,48.10
2018-08-28T04:38:07.405Z,48.20
2018-08-28T04:40:35.671Z,48.20
2018-08-28T04:43:04.027Z,48.10
2018-08-28T04:45:32.339Z,48.20
2018-08-28T04:48:00.614Z,48.10
2018-08-28T04:50:28.913Z,48.20
2018-08-28T04:52:57.151Z,48.20
2018-08-28T04:55:25.365Z,48.20
2018-08-28T04:57:53.621Z,48.10
2018-08-28T05:00:22.000Z,48.20
2018-08-28T05:02:50.345Z,48.20
2018-08-28T05:05:18.604Z,48.20
2018-08-28T05:07:46.936Z,48.80
2018-08-28T05:10:15.188Z,48.20
2018-08-28T05:12:43.438Z,48.00
2018-08-28T05:15:18.144Z,48.10
2018-08-28T05:17:46.448Z,48.10
2018-08-28T05:20:14.684Z,48.60
2018-08-28T05:22:43.031Z,48.10
2018-08-28T05:25:11.325Z,48.20
2018-08-28T05:27:39.543Z,48.00
2018-08-28T05:30:07.821Z,47.90
2018-08-28T05:32:36.119Z,47.90
2018-08-28T05:35:04.489Z,47.90
2018-08-28T05:37:32.811Z,47.80
2018-08-28T05:40:01.123Z,47.90
2018-08-28T05:42:29.414Z,47.80
2018-08-28T05:44:57.748Z,47.80
2018-08-28T05:47:26.038Z,47.90
2018-08-28T05:49:54.357Z,47.80
2018-08-28T05:52:22.673Z,47.80
2018-08-28T05:54:51.009Z,47.90
2018-08-28T05:57:19.325Z,47.70
2018-08-28T05:59:47.628Z,47.80
2018-08-28T06:02:16.014Z,47.80
2018-08-28T06:04:44.394Z,47.70
2018-08-28T06:07:12.745Z,47.70
2018-08-28T06:09:40.992Z,47.50
2018-08-28T06:12:09.325Z,47.40
2018-08-28T06:14:37.647Z,47.30
2018-08-28T06:17:06.060Z,47.20
2018-08-28T06:19:34.296Z,47.90
2018-08-28T06:22:02.613Z,47.20
2018-08-28T06:24:30.942Z,47.40
2018-08-28T06:26:59.298Z,47.20
2018-08-28T06:29:27.593Z,47.20
2018-08-28T06:31:55.937Z,47.10
2018-08-28T06:34:24.273Z,47.70
2018-08-28T06:36:52.619Z,47.00
2018-08-28T06:39:20.907Z,47.00
2018-08-28T06:41:49.258Z,46.90
2018-08-28T06:44:17.574Z,46.70
2018-08-28T06:46:45.850Z,46.70
2018-08-28T06:49:14.230Z,46.60
2018-08-28T06:51:42.604Z,46.60
2018-08-28T06:54:10.884Z,46.60
2018-08-28T06:56:39.207Z,46.60
2018-08-28T06:59:07.490Z,46.70
2018-08-28T07:01:35.768Z,46.50
2018-08-28T07:04:04.175Z,46.60
2018-08-28T07:06:32.665Z,46.60
2018-08-28T07:09:00.988Z,46.50
2018-08-28T07:11:29.190Z,46.50
2018-08-28T07:13:57.417Z,46.60
2018-08-28T07:16:25.739Z,46.60
2018-08-28T07:18:54.072Z,46.50
2018-08-28T07:21:22.313Z,46.60
2018-08-28T07:23:50.656Z,46.40
2018-08-28T07:26:19.057Z,46.30
2018-08-28T07:28:47.414Z,46.40
2018-08-28T07:31:15.712Z,46.20
2018-08-28T07:33:43.973Z,46.20
2018-08-28T07:36:12.294Z,46.20
2018-08-28T07:38:40.631Z,46.20
2018-08-28T07:41:08.861Z,46.40
2018-08-28T07:43:37.201Z,46.50
2018-08-28T07:46:05.488Z,46.50
2018-08-28T07:48:33.808Z,46.50
2018-08-28T07:51:02.153Z,46.40
2018-08-28T07:53:30.511Z,46.40
2018-08-28T07:55:58.865Z,46.20
2018-08-28T07:58:27.133Z,45.80
2018-08-28T08:00:55.544Z,45.60
2018-08-28T08:03:24.771Z,45.80
2018-08-28T08:05:54.722Z,46.10
2018-08-28T08:08:23.081Z,46.10
2018-08-28T08:10:51.753Z,46.30
2018-08-28T08:13:20.110Z,46.40
2018-08-28T08:15:48.648Z,46.20
2018-08-28T08:18:16.882Z,45.90
2018-08-28T08:20:45.128Z,45.40
2018-08-28T08:23:13.424Z,45.20
2018-08-28T08:25:42.429Z,44.80
2018-08-28T08:28:11.121Z,44.50
2018-08-28T08:30:39.333Z,44.20
2018-08-28T08:33:07.853Z,44.00
2018-08-28T08:35:36.214Z,43.80
2018-08-28T08:38:04.525Z,43.60
2018-08-28T08:40:33.538Z,43.60
2018-08-28T08:43:01.812Z,43.50
2018-08-28T08:45:30.057Z,43.50
2018-08-28T08:47:58.262Z,43.30
2018-08-28T08:50:26.572Z,43.00
2018-08-28T08:52:54.850Z,42.70
2018-08-28T08:55:23.145Z,42.60
2018-08-28T08:57:51.416Z,42.40
2018-08-28T09:00:19.750Z,42.60
2018-08-28T09:02:48.068Z,42.80
2018-08-28T09:05:16.398Z,42.80
2018-08-28T09:07:44.723Z,43.00
2018-08-28T09:10:13.073Z,43.10
2018-08-28T09:12:41.344Z,43.00
2018-08-28T09:15:09.613Z,43.00
2018-08-28T09:17:37.932Z,42.90
2018-08-28T09:20:06.268Z,42.70
2018-08-28T09:22:34.688Z,42.60
2018-08-28T09:25:03.029Z,42.30
2018-08-28T09:27:31.314Z,42.40
2018-08-28T09:29:59.665Z,42.20
2018-08-28T09:32:28.236Z,42.40
2018-08-28T09:34:56.411Z,42.40
2018-08-28T09:37:24.741Z,42.60
2018-08-28T09:39:53.057Z,42.60
2018-08-28T09:42:21.380Z,42.70
2018-08-28T09:44:49.672Z,42.60
2018-08-28T09:47:17.985Z,42.70
2018-08-28T09:49:46.349Z,42.50
2018-08-28T09:52:14.705Z,42.20
2018-08-28T09:54:43.016Z,42.10
2018-08-28T09:57:11.383Z,41.90
2018-08-28T09:59:39.600Z,41.60
2018-08-28T10:02:07.925Z,41.60
2018-08-28T10:04:36.176Z,41.50
2018-08-28T10:07:04.393Z,41.30
2018-08-28T10:09:32.741Z,41.50
2018-08-28T10:12:00.965Z,41.50
2018-08-28T10:14:29.269Z,41.50
2018-08-28T10:16:57.534Z,41.50
2018-08-28T10:19:25.773Z,41.30
2018-08-28T10:21:54.096Z,41.30
2018-08-28T10:24:22.473Z,41.30
2018-08-28T10:26:50.808Z,41.20
2018-08-28T10:29:19.183Z,41.10
2018-08-28T10:31:47.555Z,41.00
2018-08-28T10:34:15.870Z,41.00
2018-08-28T10:36:44.081Z,41.10
2018-08-28T10:39:12.385Z,41.10
2018-08-28T10:41:40.713Z,40.90
2018-08-28T10:44:09.052Z,40.50
2018-08-28T10:46:37.397Z,40.10
2018-08-28T10:49:05.656Z,39.80
2018-08-28T10:51:33.985Z,39.80
2018-08-28T10:54:02.326Z,39.60
2018-08-28T10:56:30.656Z,39.40
2018-08-28T10:58:58.988Z,39.40
2018-08-28T11:01:27.383Z,39.60
2018-08-28T11:03:55.667Z,39.50
2018-08-28T11:06:23.993Z,39.60
2018-08-28T11:08:52.376Z,39.50
2018-08-28T11:11:20.605Z,39.60
2018-08-28T11:13:48.881Z,39.60
2018-08-28T11:16:18.079Z,39.70
2018-08-28T11:18:46.345Z,39.80
2018-08-28T11:21:14.678Z,40.00
2018-08-28T11:23:42.987Z,39.40
2018-08-28T11:26:11.374Z,39.20
2018-08-28T11:28:39.718Z,39.60
2018-08-28T11:31:08.013Z,39.80
2018-08-28T11:33:36.305Z,40.20
2018-08-28T11:36:04.736Z,40.30
2018-08-28T11:38:33.111Z,41.00
2018-08-28T11:41:01.303Z,40.70
2018-08-28T11:43:29.638Z,40.90
2018-08-28T11:45:58.006Z,40.80
2018-08-28T11:48:26.309Z,41.00
2018-08-28T11:50:54.681Z,41.20
2018-08-28T11:53:23.141Z,41.50
2018-08-28T11:55:51.300Z,41.50
2018-08-28T11:58:19.648Z,41.70
2018-08-28T12:00:47.886Z,41.60
2018-08-28T12:03:16.182Z,41.30
2018-08-28T12:05:44.525Z,41.50
2018-08-28T12:08:12.817Z,42.00
2018-08-28T12:10:47.553Z,41.40
2018-08-28T12:13:15.939Z,41.20
2018-08-28T12:15:44.278Z,40.60
2018-08-28T12:18:12.557Z,39.60
2018-08-28T12:20:40.927Z,38.40
2018-08-28T12:23:09.241Z,36.40
2018-08-28T12:25:37.494Z,34.50
2018-08-28T12:28:05.881Z,33.20
2018-08-28T12:30:34.181Z,33.20
2018-08-28T12:33:02.476Z,33.20
2018-08-28T12:35:30.783Z,33.50
2018-08-28T12:37:59.044Z,32.10
2018-08-28T12:40:27.313Z,28.90
2018-08-28T12:42:55.562Z,28.30
2018-08-28T12:45:23.775Z,29.40
2018-08-28T12:47:52.068Z,30.70
2018-08-28T12:50:20.364Z,32.10
2018-08-28T12:52:48.666Z,33.50
2018-08-28T12:55:16.993Z,34.40
2018-08-28T12:57:45.358Z,35.30
2018-08-28T13:00:13.607Z,35.90
2018-08-28T13:02:41.873Z,36.10
2018-08-28T13:05:10.197Z,36.30
2018-08-28T13:07:38.522Z,36.30
2018-08-28T13:10:06.804Z,36.00
2018-08-28T13:12:35.138Z,35.70
2018-08-28T13:15:03.442Z,34.80
2018-08-28T13:17:31.762Z,34.30
2018-08-28T13:20:00.017Z,35.00
2018-08-28T13:22:28.290Z,35.50
2018-08-28T13:24:56.558Z,36.40
2018-08-28T13:27:24.845Z,36.80
2018-08-28T13:29:53.163Z,37.80
2018-08-28T13:32:21.465Z,37.60
2018-08-28T13:34:49.800Z,38.10
2018-08-28T13:37:18.090Z,38.30
2018-08-28T13:39:46.401Z,38.50
2018-08-28T13:42:14.722Z,38.90
2018-08-28T13:44:43.045Z,39.00
2018-08-28T13:47:11.502Z,39.10
2018-08-28T13:49:40.129Z,39.80
2018-08-28T13:52:08.445Z,39.30
2018-08-28T13:54:36.736Z,39.20
2018-08-28T13:57:05.078Z,39.20
2018-08-28T13:59:33.390Z,39.20
2018-08-28T14:02:02.078Z,39.10
2018-08-28T14:04:30.312Z,39.20
2018-08-28T14:06:58.700Z,39.20
2018-08-28T14:09:27.000Z,39.20
2018-08-28T14:11:55.189Z,39.30
2018-08-28T14:14:23.483Z,39.10
2018-08-28T14:16:51.793Z,39.20
2018-08-28T14:19:20.045Z,39.40
2018-08-28T14:21:48.317Z,39.40
2018-08-28T14:24:16.633Z,39.50
2018-08-28T14:26:44.978Z,39.20
2018-08-28T14:29:13.344Z,39.30
2018-08-28T14:31:41.589Z,39.40
2018-08-28T14:34:09.869Z,39.30
2018-08-28T14:36:38.182Z,39.40
2018-08-28T14:39:07.039Z,39.50
2018-08-28T14:41:35.369Z,39.70
2018-08-28T14:44:03.830Z,39.70
2018-08-28T14:46:32.157Z,39.70
2018-08-28T14:49:00.466Z,39.80
2018-08-28T14:51:28.709Z,39.80
2018-08-28T14:53:57.127Z,39.70
2018-08-28T14:56:25.449Z,40.30
2018-08-28T14:58:53.748Z,39.90
2018-08-28T15:01:22.087Z,39.80
2018-08-28T15:03:50.393Z,39.90
2018-08-28T15:06:18.662Z,40.10
2018-08-28T15:08:46.980Z,40.20
2018-08-28T15:11:15.256Z,40.30
2018-08-28T15:13:43.564Z,40.50
2018-08-28T15:16:11.860Z,40.60
2018-08-28T15:18:40.258Z,40.60
2018-08-28T15:21:08.597Z,40.60
2018-08-28T15:23:36.993Z,40.70
2018-08-28T15:26:05.338Z,40.80
2018-08-28T15:28:33.666Z,40.80
2018-08-28T15:31:02.042Z,40.90
2018-08-28T15:33:30.306Z,41.10
2018-08-28T15:35:58.620Z,41.20
2018-08-28T15:38:26.963Z,41.40
2018-08-28T15:40:55.181Z,41.60
2018-08-28T15:43:23.473Z,41.70
2018-08-28T15:45:51.714Z,41.70
2018-08-28T15:48:20.037Z,41.80
2018-08-28T15:50:48.304Z,41.90
2018-08-28T15:53:16.678Z,41.90
2018-08-28T15:55:44.932Z,42.00
2018-08-28T15:58:13.275Z,42.10
2018-08-28T16:00:41.589Z,42.20
2018-08-28T16:03:09.869Z,42.60
2018-08-28T16:05:38.201Z,42.30
2018-08-28T16:08:06.537Z,42.30
2018-08-28T16:10:34.930Z,42.40
2018-08-28T16:13:03.302Z,42.30
2018-08-28T16:15:31.608Z,42.40
2018-08-28T16:17:59.931Z,42.50
2018-08-28T16:20:28.185Z,42.50
2018-08-28T16:22:59.604Z,42.40
2018-08-28T16:25:27.938Z,42.50
2018-08-28T16:27:56.283Z,42.60
2018-08-28T16:30:24.524Z,42.50
2018-08-28T16:32:52.813Z,42.50
2018-08-28T16:35:21.131Z,42.60
2018-08-28T16:37:49.466Z,42.70
2018-08-28T16:40:17.793Z,42.70
2018-08-28T16:42:46.058Z,42.70
2018-08-28T16:45:14.324Z,42.70
2018-08-28T16:47:42.601Z,42.60
2018-08-28T16:50:10.872Z,42.60
2018-08-28T16:52:39.156Z,42.70
2018-08-28T16:55:07.510Z,42.60
2018-08-28T16:57:35.894Z,42.60
2018-08-28T17:00:04.303Z,42.70
2018-08-28T17:02:32.650Z,42.60
2018-08-28T17:05:01.026Z,42.80
2018-08-28T17:07:29.354Z,42.90
2018-08-28T17:09:57.685Z,42.80
2018-08-28T17:12:26.160Z,42.90
2018-08-28T17:14:54.300Z,43.10
2018-08-28T17:17:22.629Z,43.10
2018-08-28T17:19:50.884Z,43.10
2018-08-28T17:22:20.181Z,43.20
2018-08-28T17:24:48.536Z,43.30
2018-08-28T17:27:16.822Z,43.30
2018-08-28T17:29:45.140Z,43.50
2018-08-28T17:32:13.406Z,43.30
2018-08-28T17:34:41.710Z,44.10
2018-08-28T17:37:10.216Z,43.60
2018-08-28T17:39:38.536Z,43.60
2018-08-28T17:42:07.018Z,43.70
2018-08-28T17:44:35.454Z,43.90
2018-08-28T17:47:03.781Z,44.00
2018-08-28T17:49:32.329Z,44.00
2018-08-28T17:52:01.915Z,44.30
2018-08-28T17:54:32.273Z,44.50
2018-08-28T17:57:00.709Z,44.70
2018-08-28T17:59:28.966Z,44.90
2018-08-28T18:01:58.348Z,45.10
2018-08-28T18:04:26.760Z,45.60
2018-08-28T18:06:55.070Z,45.90
2018-08-28T18:09:23.458Z,45.90
2018-08-28T18:11:51.762Z,46.10
2018-08-28T18:14:20.102Z,46.40
2018-08-28T18:16:48.505Z,46.60
2018-08-28T18:19:16.882Z,46.60
2018-08-28T18:21:45.225Z,47.00
2018-08-28T18:24:13.578Z,47.10
2018-08-28T18:26:41.910Z,47.20
2018-08-28T18:29:10.316Z,47.30
2018-08-28T18:31:38.677Z,47.30
2018-08-28T18:34:07.029Z,47.50
2018-08-28T18:36:35.362Z,47.60
2018-08-28T18:39:05.104Z,47.80
2018-08-28T18:41:33.683Z,47.80
2018-08-28T18:44:01.869Z,47.80
2018-08-28T18:46:31.061Z,48.00
2018-08-28T18:48:59.442Z,47.90
2018-08-28T18:51:29.094Z,48.10
2018-08-28T18:53:57.660Z,48.20
2018-08-28T18:56:32.930Z,48.30
2018-08-28T18:59:02.413Z,48.30
2018-08-28T19:01:31.034Z,48.40
2018-08-28T19:03:59.417Z,48.40
2018-08-28T19:06:27.765Z,48.40
2018-08-28T19:08:56.117Z,48.50
2018-08-28T19:11:24.418Z,48.70
2018-08-28T19:13:52.840Z,48.70
2018-08-28T19:16:21.159Z,48.80
2018-08-28T19:18:49.465Z,48.70
2018-08-28T19:21:17.876Z,48.80
2018-08-28T19:23:46.257Z,48.80
2018-08-28T19:26:14.622Z,49.00
2018-08-28T19:28:42.941Z,49.10
2018-08-28T19:31:11.372Z,49.20
2018-08-28T19:33:39.849Z,49.20
2018-08-28T19:36:08.233Z,49.20
2018-08-28T19:38:36.555Z,49.20
2018-08-28T19:41:04.913Z,49.30
2018-08-28T19:43:33.255Z,49.30
2018-08-28T19:46:01.585Z,49.30
2018-08-28T19:48:29.857Z,49.30
2018-08-28T19:50:58.142Z,49.40
2018-08-28T19:53:26.550Z,49.50
2018-08-28T19:55:54.845Z,49.40
2018-08-28T19:58:23.308Z,49.40
2018-08-28T20:00:51.557Z,50.10
2018-08-28T20:03:19.910Z,49.60
2018-08-28T20:05:48.261Z,49.70
2018-08-28T20:08:16.636Z,49.70
2018-08-28T20:10:45.053Z,49.80
2018-08-28T20:13:13.420Z,49.80
2018-08-28T20:15:41.786Z,50.00
2018-08-28T20:18:10.175Z,50.00
2018-08-28T20:20:38.590Z,49.90
2018-08-28T20:23:06.934Z,50.10
2018-08-28T20:25:35.330Z,50.20
2018-08-28T20:28:03.741Z,50.20
2018-08-28T20:30:32.109Z,50.20
2018-08-28T20:33:00.436Z,50.20
2018-08-28T20:35:28.734Z,50.60
2018-08-28T20:37:57.052Z,50.20
2018-08-28T20:40:25.380Z,50.30
2018-08-28T20:42:53.721Z,50.10
2018-08-28T20:45:22.073Z,50.20
2018-08-28T20:47:50.409Z,50.30
2018-08-28T20:50:18.762Z,50.40
2018-08-28T20:52:47.891Z,50.50
2018-08-28T20:55:16.261Z,50.60
2018-08-28T20:57:44.621Z,50.70
2018-08-28T21:00:12.960Z,50.70
2018-08-28T21:02:41.318Z,50.60
2018-08-28T21:05:09.637Z,50.70
2018-08-28T21:07:38.008Z,50.70
2018-08-28T21:10:06.822Z,50.80
2018-08-28T21:12:35.129Z,50.90
2018-08-28T21:15:03.526Z,50.90
2018-08-28T21:17:31.888Z,51.00
2018-08-28T21:20:00.217Z,50.90
2018-08-28T21:22:28.617Z,51.00
2018-08-28T21:24:56.918Z,51.10
2018-08-28T21:27:25.270Z,51.00
2018-08-28T21:29:53.576Z,51.10
2018-08-28T21:32:21.960Z,51.20
2018-08-28T21:34:50.294Z,51.20
2018-08-28T21:37:18.569Z,51.20
2018-08-28T21:39:46.947Z,51.30
2018-08-28T21:42:15.245Z,51.20
2018-08-28T21:44:43.527Z,51.00
2018-08-28T21:47:11.864Z,51.00
2018-08-28T21:49:40.108Z,51.10
2018-08-28T21:52:08.441Z,51.20
2018-08-28T21:54:36.781Z,51.20
2018-08-28T21:57:05.157Z,51.20
2018-08-28T21:59:33.544Z,51.40
2018-08-28T22:02:01.873Z,51.20
2018-08-28T22:04:30.211Z,51.20
2018-08-28T22:07:03.777Z,51.20
2018-08-28T22:09:32.165Z,51.20
2018-08-28T22:12:00.553Z,51.20
2018-08-28T22:14:28.866Z,51.30
2018-08-28T22:16:57.310Z,51.30
2018-08-28T22:19:25.667Z,51.40
2018-08-28T22:21:54.149Z,51.20
2018-08-28T22:24:22.468Z,51.20
2018-08-28T22:26:50.780Z,51.30
2018-08-28T22:29:19.094Z,51.20
2018-08-28T22:31:47.412Z,51.30
2018-08-28T22:34:15.798Z,51.40
2018-08-28T22:36:44.112Z,52.00
2018-08-28T22:39:12.457Z,51.40
2018-08-28T22:41:40.779Z,51.30
2018-08-28T22:44:09.053Z,51.30
2018-08-28T22:46:37.376Z,51.40
2018-08-28T22:49:05.705Z,51.40
2018-08-28T22:51:33.992Z,51.40
2018-08-28T22:54:02.332Z,51.30
2018-08-28T22:56:30.667Z,51.50
2018-08-28T22:58:58.973Z,51.60
2018-08-28T23:01:27.388Z,51.50
2018-08-28T23:03:55.722Z,51.50
2018-08-28T23:06:24.026Z,51.30
2018-08-28T23:08:52.283Z,51.30
2018-08-28T23:11:20.526Z,51.50
2018-08-28T23:13:48.757Z,51.40
2018-08-28T23:16:17.097Z,51.40
2018-08-28T23:18:45.453Z,51.30
2018-08-28T23:21:13.778Z,51.40
2018-08-28T23:23:42.062Z,51.50
2018-08-28T23:26:10.329Z,51.50
2018-08-28T23:28:38.584Z,51.40
2018-08-28T23:31:06.893Z,51.40
2018-08-28T23:33:35.163Z,51.30
2018-08-28T23:36:03.471Z,51.50
2018-08-28T23:38:31.700Z,51.40
2018-08-28T23:40:59.987Z,51.40
2018-08-28T23:43:28.266Z,51.30
2018-08-28T23:45:56.689Z,51.30
2018-08-28T23:48:24.988Z,51.30
2018-08-28T23:50:53.306Z,51.20
2018-08-28T23:53:21.585Z,51.20
2018-08-28T23:55:49.929Z,51.10
2018-08-28T23:58:18.321Z,51.10
